Terminal Aerodrome Forecast
Issued by NWS

Home | Current Version | Previous Version | Graphics & Text | Print | Product List | Glossary On
Versions: 1 2 3 4 5 6 7 8 9 10 11 12 13
598
FTUS43 KGRB 151730
TAFCWA
TAF
KCWA 151730Z 1518/1618 32012G18KT P6SM BKN025
      TEMPO 1518/1519 SCT025 OVC035
     FM151900 32012G18KT P6SM BKN035
     FM152000 31012G18KT P6SM BKN026
     FM152100 30011G17KT P6SM BKN035
     FM152200 27005KT P6SM SCT120=

USA.gov is the U.S. government's official web portal to all federal, state and local government web resources and services.